Time;durP1;ratioP1;P1;durP2;ratioP2;P2;SDS_P1;SDS_P2;PMS_P1;PMS_P2;Temp;Humidity;BMP_temperature;BMP_pressure;BME280_temperature;BME280_humidity;BME280_pressure;Samples;Min_cycle;Max_cycle;Signal;HPM_P1;HPM_P2
2023/12/22 00:01:19;;;;;;;;;;;;;;;8.33;100.00;100249.63;5113719;28;19924;-42
2023/12/22 00:03:47;;;;;;;;;;;;;;;8.36;100.00;100269.88;5113097;28;20007;-46
2023/12/22 00:06:13;;;;;;;;;;;;;;;8.34;100.00;100253.13;5113890;28;20026;-43
2023/12/22 00:08:38;;;;;;;;;;;;;;;8.32;100.00;100255.16;5113859;28;19916;-42
2023/12/22 00:11:03;;;;;;;;;;;;;;;8.33;100.00;100256.84;5113373;28;20278;-43
2023/12/22 00:13:28;;;;;;;;;;;;;;;8.35;100.00;100254.81;5113655;28;19919;-43
2023/12/22 00:15:54;;;;;;;;;;;;;;;8.34;100.00;100250.44;5113084;28;20023;-44
2023/12/22 00:18:19;;;;;;;;;;;;;;;8.38;100.00;100245.56;5113594;28;20005;-43
2023/12/22 00:20:44;;;;;;;;;;;;;;;8.42;100.00;100252.25;5113749;28;19915;-44
2023/12/22 00:23:09;;;;;;;;;;;;;;;8.48;100.00;100273.81;5113374;28;19995;-43
2023/12/22 00:25:34;;;;;;;;;;;;;;;8.52;100.00;100275.09;5113381;28;19923;-43
2023/12/22 00:28:00;;;;;;;;;;;;;;;8.47;100.00;100266.78;5113610;28;19916;-43
2023/12/22 00:30:25;;;;;;;;;;;;;;;8.48;100.00;100241.63;5114306;28;19919;-43
2023/12/22 00:32:50;;;;;;;;;;;;;;;8.46;100.00;100248.19;5113299;28;20372;-43
2023/12/22 00:35:15;;;;;;;;;;;;;;;8.43;100.00;100260.13;5112932;28;19931;-43
2023/12/22 00:37:41;;;;;;;;;;;;;;;8.42;100.00;100263.81;5113414;28;19923;-43
2023/12/22 00:40:08;;;;;;;;;;;;;;;8.39;100.00;100260.63;5114972;28;19923;-43
2023/12/22 00:42:33;;;;;;;;;;;;;;;8.34;100.00;100262.00;5116905;28;19926;-45
2023/12/22 00:44:58;;;;;;;;;;;;;;;8.35;100.00;100268.22;5114373;28;19951;-43
2023/12/22 00:47:23;;;;;;;;;;;;;;;8.34;100.00;100282.63;5115561;28;19959;-43
2023/12/22 00:49:48;;;;;;;;;;;;;;;8.38;100.00;100291.97;5114955;28;19942;-43
2023/12/22 00:52:14;;;;;;;;;;;;;;;8.39;100.00;100290.13;5116096;28;19915;-43
2023/12/22 00:54:39;;;;;;;;;;;;;;;8.37;100.00;100292.97;5115516;28;19916;-44
2023/12/22 00:57:04;;;;;;;;;;;;;;;8.38;100.00;100286.63;5114371;28;20476;-43
2023/12/22 00:59:29;;;;;;;;;;;;;;;8.38;100.00;100291.97;5113925;28;19939;-43
2023/12/22 01:01:55;;;;;;;;;;;;;;;8.39;100.00;100316.94;5114472;28;19973;-43
2023/12/22 01:04:20;;;;;;;;;;;;;;;8.36;100.00;100296.69;5114124;28;19916;-43
2023/12/22 01:06:45;;;;;;;;;;;;;;;8.34;100.00;100298.69;5112883;28;19920;-42
2023/12/22 01:09:10;;;;;;;;;;;;;;;8.38;100.00;100294.66;5113328;28;19927;-43
2023/12/22 01:11:36;;;;;;;;;;;;;;;8.36;100.00;100296.69;5114416;28;20366;-43
2023/12/22 01:14:01;;;;;;;;;;;;;;;8.35;100.00;100295.03;5114341;28;20323;-42
2023/12/22 01:16:26;;;;;;;;;;;;;;;8.36;100.00;100284.09;5114365;28;19916;-43
2023/12/22 01:18:51;;;;;;;;;;;;;;;8.40;100.00;100287.31;5118074;28;19919;-43
2023/12/22 01:21:17;;;;;;;;;;;;;;;8.48;100.00;100306.00;5118219;28;20003;-44
2023/12/22 01:23:42;;;;;;;;;;;;;;;8.50;100.00;100314.69;5116738;28;19951;-44
2023/12/22 01:26:07;;;;;;;;;;;;;;;8.45;100.00;100301.00;5116931;27;20345;-44
2023/12/22 01:28:33;;;;;;;;;;;;;;;8.35;100.00;100297.72;5116972;28;20286;-44
2023/12/22 01:30:58;;;;;;;;;;;;;;;8.34;100.00;100293.34;5116486;28;19973;-44
2023/12/22 01:33:24;;;;;;;;;;;;;;;8.33;100.00;100302.41;5116741;28;19916;-42
2023/12/22 01:35:50;;;;;;;;;;;;;;;8.38;100.00;100315.28;5116566;28;19919;-44
2023/12/22 01:38:15;;;;;;;;;;;;;;;8.35;100.00;100324.53;5115404;28;19916;-43
2023/12/22 01:40:40;;;;;;;;;;;;;;;8.31;100.00;100309.78;5117337;28;19927;-44
2023/12/22 01:43:06;;;;;;;;;;;;;;;8.35;100.00;100317.31;5117097;28;19916;-44
2023/12/22 01:45:31;;;;;;;;;;;;;;;8.35;100.00;100306.59;5116759;28;19988;-43
2023/12/22 01:47:56;;;;;;;;;;;;;;;8.40;100.00;100314.13;5116687;28;20434;-45
2023/12/22 01:50:21;;;;;;;;;;;;;;;8.42;100.00;100325.47;5115169;28;20501;-44
2023/12/22 01:52:46;;;;;;;;;;;;;;;8.53;100.00;100341.16;5115823;28;19919;-45
2023/12/22 01:55:12;;;;;;;;;;;;;;;8.57;100.00;100304.91;5116858;28;19927;-44
2023/12/22 01:57:37;;;;;;;;;;;;;;;8.63;100.00;100335.53;5112319;28;19939;-43
2023/12/22 02:00:03;;;;;;;;;;;;;;;8.68;100.00;100324.25;5104992;28;19927;-43
2023/12/22 02:02:29;;;;;;;;;;;;;;;8.68;100.00;100340.34;5116175;28;19920;-42
2023/12/22 02:04:54;;;;;;;;;;;;;;;8.63;100.00;100340.06;5113500;28;19927;-43
2023/12/22 02:07:19;;;;;;;;;;;;;;;8.61;100.00;100342.09;5115788;28;20346;-44
2023/12/22 02:09:44;;;;;;;;;;;;;;;8.56;100.00;100343.47;5115830;28;20478;-43
2023/12/22 02:12:10;;;;;;;;;;;;;;;8.57;100.00;100353.19;5115889;28;19920;-43
2023/12/22 02:14:35;;;;;;;;;;;;;;;8.60;100.00;100356.53;5115708;28;19980;-43
2023/12/22 02:17:11;;;;;;;;;;;;;;;8.53;100.00;100351.88;5115759;28;20022;-43
2023/12/22 02:19:42;;;;;;;;;;;;;;;8.56;100.00;100346.16;5114218;28;19924;-44
2023/12/22 02:22:07;;;;;;;;;;;;;;;8.61;100.00;100336.72;5116107;28;19924;-44
2023/12/22 02:24:32;;;;;;;;;;;;;;;8.60;100.00;100340.44;5115614;27;19920;-43
2023/12/22 02:27:17;;;;;;;;;;;;;;;8.57;100.00;100345.13;5115254;28;20423;-43
2023/12/22 02:29:43;;;;;;;;;;;;;;;8.59;100.00;100344.13;5113560;28;19920;-43
2023/12/22 02:32:10;;;;;;;;;;;;;;;8.57;100.00;100341.63;5115854;27;19922;-44
2023/12/22 02:34:36;;;;;;;;;;;;;;;8.53;100.00;100351.88;5115678;28;19927;-44
2023/12/22 02:37:01;;;;;;;;;;;;;;;8.55;100.00;100339.09;5114680;28;19915;-44
2023/12/22 02:39:26;;;;;;;;;;;;;;;8.59;100.00;100347.66;5114172;28;19920;-44
2023/12/22 02:41:51;;;;;;;;;;;;;;;8.61;100.00;100332.22;5114371;28;19958;-43
2023/12/22 02:44:16;;;;;;;;;;;;;;;8.63;100.00;100330.16;5115412;28;19947;-44
2023/12/22 02:46:43;;;;;;;;;;;;;;;8.61;100.00;100326.00;5114878;28;20066;-44
2023/12/22 02:49:08;;;;;;;;;;;;;;;8.64;100.00;100326.47;5114140;28;19980;-43
2023/12/22 02:51:34;;;;;;;;;;;;;;;8.64;100.00;100336.38;5115485;28;20353;-43
2023/12/22 02:53:59;;;;;;;;;;;;;;;8.61;100.00;100323.31;5115129;28;19919;-44
2023/12/22 02:56:24;;;;;;;;;;;;;;;8.63;100.00;100318.59;5114968;28;19972;-43
2023/12/22 02:58:49;;;;;;;;;;;;;;;8.65;100.00;100333.50;5115006;27;20320;-44
2023/12/22 03:01:14;;;;;;;;;;;;;;;8.65;100.00;100327.31;5114994;28;20392;-43
2023/12/22 03:03:40;;;;;;;;;;;;;;;8.67;100.00;100341.38;5098392;28;20365;-44
2023/12/22 03:06:05;;;;;;;;;;;;;;;8.67;100.00;100346.75;5114656;28;20342;-44
2023/12/22 03:08:30;;;;;;;;;;;;;;;8.66;100.00;100339.69;5114683;28;20366;-44
2023/12/22 03:10:55;;;;;;;;;;;;;;;8.68;100.00;100337.66;5114825;28;19998;-44
2023/12/22 03:13:21;;;;;;;;;;;;;;;8.67;100.00;100341.38;5114889;28;20007;-43
2023/12/22 03:15:47;;;;;;;;;;;;;;;8.66;100.00;100345.06;5114701;28;20646;-44
2023/12/22 03:18:12;;;;;;;;;;;;;;;8.59;100.00;100318.13;5114674;28;19920;-44
2023/12/22 03:20:38;;;;;;;;;;;;;;;8.62;100.00;100330.34;5114806;28;20007;-44
2023/12/22 03:23:03;;;;;;;;;;;;;;;8.57;100.00;100326.34;5115042;28;19922;-43
2023/12/22 03:25:28;;;;;;;;;;;;;;;8.59;100.00;100330.72;5114787;28;19916;-43
2023/12/22 03:27:53;;;;;;;;;;;;;;;8.61;100.00;100328.66;5114688;28;19972;-43
2023/12/22 03:30:19;;;;;;;;;;;;;;;8.57;100.00;100321.00;5114641;28;19915;-42
2023/12/22 03:32:44;;;;;;;;;;;;;;;8.59;100.00;100328.88;5114572;28;19969;-43
2023/12/22 03:35:09;;;;;;;;;;;;;;;8.60;100.00;100325.16;5114452;28;19915;-43
2023/12/22 03:37:34;;;;;;;;;;;;;;;8.64;100.00;100320.28;5114329;28;19952;-43
2023/12/22 03:40:00;;;;;;;;;;;;;;;8.65;100.00;100319.25;5113401;28;19920;-44
2023/12/22 03:42:25;;;;;;;;;;;;;;;8.72;100.00;100333.63;5114482;28;19920;-44
2023/12/22 03:44:50;;;;;;;;;;;;;;;8.72;100.00;100341.66;5114084;28;19975;-43
2023/12/22 03:47:16;;;;;;;;;;;;;;;8.73;100.00;100319.16;5114374;28;19939;-44
2023/12/22 03:49:41;;;;;;;;;;;;;;;8.79;100.00;100329.16;5114315;28;19920;-44
2023/12/22 03:52:06;;;;;;;;;;;;;;;8.81;100.00;100348.59;5113998;28;20212;-44
2023/12/22 03:54:31;;;;;;;;;;;;;;;8.80;100.00;100352.31;5114042;28;20460;-45
2023/12/22 03:56:56;;;;;;;;;;;;;;;8.79;100.00;100340.75;5113991;28;19919;-44
2023/12/22 03:59:22;;;;;;;;;;;;;;;8.81;100.00;100337.88;5113747;28;20015;-43
2023/12/22 04:01:50;;;;;;;;;;;;;;;8.83;100.00;100335.03;5113918;28;19915;-43
2023/12/22 04:04:15;;;;;;;;;;;;;;;8.78;100.00;100348.97;5113902;28;19980;-43
2023/12/22 04:06:41;;;;;;;;;;;;;;;8.79;100.00;100353.31;5113820;28;19919;-43
2023/12/22 04:09:06;;;;;;;;;;;;;;;8.79;100.00;100345.25;5113325;28;19951;-44
2023/12/22 04:11:31;;;;;;;;;;;;;;;8.79;100.00;100345.25;5113911;28;19924;-43
2023/12/22 04:13:56;;;;;;;;;;;;;;;8.79;100.00;100342.59;5113984;28;19984;-45
2023/12/22 04:16:21;;;;;;;;;;;;;;;8.81;100.00;100337.03;5112686;28;19924;-43
2023/12/22 04:18:47;;;;;;;;;;;;;;;8.89;100.00;100345.84;5113970;28;19922;-43
2023/12/22 04:21:12;;;;;;;;;;;;;;;8.85;100.00;100343.72;5110518;28;19926;-46
2023/12/22 04:23:37;;;;;;;;;;;;;;;8.88;100.00;100356.78;5111971;28;19995;-44
2023/12/22 04:26:02;;;;;;;;;;;;;;;8.88;100.00;100354.91;5111940;28;19919;-43
2023/12/22 04:28:28;;;;;;;;;;;;;;;8.84;100.00;100358.97;5112963;28;19915;-45
2023/12/22 04:30:53;;;;;;;;;;;;;;;8.85;100.00;100355.28;5112373;28;20425;-43
2023/12/22 04:33:18;;;;;;;;;;;;;;;8.83;100.00;100360.00;5112062;28;20471;-43
2023/12/22 04:35:43;;;;;;;;;;;;;;;8.84;100.00;100366.19;5112827;28;19920;-44
2023/12/22 04:38:08;;;;;;;;;;;;;;;8.88;100.00;100359.47;5112643;28;19912;-44
2023/12/22 04:40:34;;;;;;;;;;;;;;;8.88;100.00;100360.28;5112382;28;19969;-43
2023/12/22 04:42:59;;;;;;;;;;;;;;;8.85;100.00;100349.91;5113594;28;19955;-43
2023/12/22 04:45:24;;;;;;;;;;;;;;;8.82;100.00;100361.03;5113293;28;19958;-43
2023/12/22 04:47:49;;;;;;;;;;;;;;;8.86;100.00;100351.56;5113467;28;20014;-47
2023/12/22 04:50:15;;;;;;;;;;;;;;;8.90;100.00;100352.91;5112300;28;20293;-44
2023/12/22 04:52:40;;;;;;;;;;;;;;;8.88;100.00;100365.66;5111660;28;19920;-44
2023/12/22 04:55:05;;;;;;;;;;;;;;;8.89;100.00;100367.31;5110924;28;19980;-44
2023/12/22 04:57:30;;;;;;;;;;;;;;;8.87;100.00;100363.97;5114061;28;19941;-43
2023/12/22 04:59:55;;;;;;;;;;;;;;;8.87;100.00;100374.69;5113866;28;19920;-44
2023/12/22 05:02:21;;;;;;;;;;;;;;;8.85;100.00;100371.38;5112411;28;19960;-45
2023/12/22 05:04:46;;;;;;;;;;;;;;;8.87;100.00;100369.34;5112911;28;19922;-43
2023/12/22 05:07:11;;;;;;;;;;;;;;;8.91;100.00;100370.66;5112039;28;19934;-44
2023/12/22 05:09:36;;;;;;;;;;;;;;;8.92;100.00;100366.09;5111690;28;19915;-43
2023/12/22 05:12:02;;;;;;;;;;;;;;;8.94;100.00;100358.72;5111701;28;19920;-44
2023/12/22 05:14:27;;;;;;;;;;;;;;;8.97;100.00;100367.22;5111187;28;19930;-42
2023/12/22 05:16:55;;;;;;;;;;;;;;;8.99;100.00;100357.16;5112448;28;19912;-43
2023/12/22 05:19:20;;;;;;;;;;;;;;;8.96;100.00;100360.19;5093467;28;19924;-44
2023/12/22 05:21:45;;;;;;;;;;;;;;;8.96;100.00;100362.88;5101567;28;19927;-44
2023/12/22 05:24:10;;;;;;;;;;;;;;;8.98;100.00;100355.50;5110409;28;19927;-44
2023/12/22 05:26:36;;;;;;;;;;;;;;;8.98;100.00;100354.66;5110706;28;20006;-43
2023/12/22 05:29:01;;;;;;;;;;;;;;;8.94;100.00;100340.75;5110358;28;20098;-43
2023/12/22 05:31:27;;;;;;;;;;;;;;;8.93;100.00;100352.53;5110796;28;20416;-44
2023/12/22 05:33:52;;;;;;;;;;;;;;;8.92;100.00;100356.19;5108946;28;19916;-45
2023/12/22 05:36:18;;;;;;;;;;;;;;;8.95;100.00;100357.69;5092486;28;19924;-44
2023/12/22 05:38:43;;;;;;;;;;;;;;;8.95;100.00;100366.59;5105420;28;20609;-44
2023/12/22 05:41:08;;;;;;;;;;;;;;;8.94;100.00;100370.28;5110098;28;19942;-45
2023/12/22 05:43:33;;;;;;;;;;;;;;;8.97;100.00;100361.84;5110164;28;19920;-43
2023/12/22 05:45:59;;;;;;;;;;;;;;;8.94;100.00;100358.72;5110196;28;20289;-45
2023/12/22 05:48:25;;;;;;;;;;;;;;;8.95;100.00;100353.19;5110328;28;20332;-43
2023/12/22 05:50:50;;;;;;;;;;;;;;;8.95;100.00;100361.22;5110309;28;19918;-43
2023/12/22 05:53:15;;;;;;;;;;;;;;;8.99;100.00;100354.47;5109715;28;19924;-44
2023/12/22 05:55:40;;;;;;;;;;;;;;;9.02;100.00;100366.69;5109611;28;20369;-44
2023/12/22 05:58:06;;;;;;;;;;;;;;;9.00;100.00;100361.50;5109967;28;19916;-43
2023/12/22 06:00:31;;;;;;;;;;;;;;;9.02;100.00;100356.78;5110368;28;19980;-45
2023/12/22 06:02:56;;;;;;;;;;;;;;;8.99;100.00;100359.00;5111255;28;19916;-44
2023/12/22 06:05:21;;;;;;;;;;;;;;;9.03;100.00;100352.25;5112696;28;19927;-43
2023/12/22 06:07:47;;;;;;;;;;;;;;;9.04;100.00;100355.78;5115061;28;20413;-44
2023/12/22 06:10:12;;;;;;;;;;;;;;;9.08;100.00;100370.47;5115398;28;19950;-44
2023/12/22 06:12:37;;;;;;;;;;;;;;;9.06;100.00;100361.78;5115408;28;19920;-44
2023/12/22 06:15:03;;;;;;;;;;;;;;;9.02;100.00;100346.03;5116330;28;19919;-43
2023/12/22 06:17:28;;;;;;;;;;;;;;;9.05;100.00;100352.88;5115512;27;20372;-44
2023/12/22 06:19:53;;;;;;;;;;;;;;;9.05;100.00;100360.94;5114939;28;20032;-43
2023/12/22 06:22:18;;;;;;;;;;;;;;;9.06;100.00;100359.09;5114670;28;19915;-44
2023/12/22 06:24:44;;;;;;;;;;;;;;;9.07;100.00;100352.72;5112343;28;19930;-43
2023/12/22 06:27:09;;;;;;;;;;;;;;;9.07;100.00;100328.56;5114816;28;19923;-44
2023/12/22 06:29:35;;;;;;;;;;;;;;;9.05;100.00;100357.44;5114356;28;19931;-44
2023/12/22 06:32:00;;;;;;;;;;;;;;;9.07;100.00;100352.72;5114695;28;20415;-44
2023/12/22 06:34:25;;;;;;;;;;;;;;;9.11;100.00;100354.00;5114585;28;19920;-44
2023/12/22 06:36:51;;;;;;;;;;;;;;;9.14;100.00;100353.66;5115002;28;19979;-42
2023/12/22 06:39:16;;;;;;;;;;;;;;;9.10;100.00;100366.59;5114290;28;20372;-44
2023/12/22 06:41:41;;;;;;;;;;;;;;;9.10;100.00;100346.97;5114562;28;19976;-43
2023/12/22 06:44:06;;;;;;;;;;;;;;;9.12;100.00;100355.69;5114836;28;20038;-44
2023/12/22 06:46:32;;;;;;;;;;;;;;;9.10;100.00;100352.34;5115773;28;19915;-44
2023/12/22 06:48:57;;;;;;;;;;;;;;;9.11;100.00;100359.38;5114683;27;19923;-44
2023/12/22 06:51:26;;;;;;;;;;;;;;;9.13;100.00;100346.59;5113330;28;19916;-43
2023/12/22 06:53:51;;;;;;;;;;;;;;;9.12;100.00;100332.34;5113269;28;20034;-44
2023/12/22 06:56:20;;;;;;;;;;;;;;;9.12;100.00;100335.03;5114151;28;20341;-44
2023/12/22 06:58:49;;;;;;;;;;;;;;;9.08;100.00;100339.09;5113934;28;19950;-43
2023/12/22 07:01:18;;;;;;;;;;;;;;;9.09;100.00;100323.84;5113493;28;20401;-44
2023/12/22 07:03:43;;;;;;;;;;;;;;;9.07;100.00;100333.94;5113574;28;20439;-43
2023/12/22 07:06:08;;;;;;;;;;;;;;;9.10;100.00;100336.25;5113732;28;19920;-45
2023/12/22 07:08:34;;;;;;;;;;;;;;;9.08;100.00;100327.53;5112709;28;19981;-44
2023/12/22 07:10:59;;;;;;;;;;;;;;;9.04;100.00;100331.63;5113630;28;20423;-44
2023/12/22 07:13:24;;;;;;;;;;;;;;;9.01;100.00;100341.69;5113164;28;19920;-44
2023/12/22 07:15:49;;;;;;;;;;;;;;;9.05;100.00;100339.47;5113092;28;19920;-44
2023/12/22 07:18:14;;;;;;;;;;;;;;;9.08;100.00;100341.78;5101725;28;19920;-43
2023/12/22 07:20:40;;;;;;;;;;;;;;;9.10;100.00;100346.97;5113233;27;19939;-43
2023/12/22 07:23:05;;;;;;;;;;;;;;;9.08;100.00;100349.84;5114298;27;20011;-44
2023/12/22 07:25:34;;;;;;;;;;;;;;;9.08;100.00;100354.38;5112180;28;20350;-43
2023/12/22 07:27:59;;;;;;;;;;;;;;;9.05;100.00;100360.13;5112453;27;20366;-43
2023/12/22 07:30:24;;;;;;;;;;;;;;;9.02;100.00;100354.09;5112174;28;19920;-44
2023/12/22 07:32:52;;;;;;;;;;;;;;;8.97;100.00;100358.34;5111461;27;19920;-38
2023/12/22 07:35:17;;;;;;;;;;;;;;;8.98;100.00;100366.22;5109698;28;19927;-45
2023/12/22 07:37:43;;;;;;;;;;;;;;;8.99;100.00;100362.50;5111296;27;19919;-45
2023/12/22 07:40:09;;;;;;;;;;;;;;;9.05;100.00;100362.78;5112126;28;19923;-47
2023/12/22 07:42:34;;;;;;;;;;;;;;;9.01;100.00;100360.50;5111996;28;19923;-46
2023/12/22 07:44:59;;;;;;;;;;;;;;;9.03;100.00;100368.38;5111994;28;20381;-43
2023/12/22 07:47:24;;;;;;;;;;;;;;;9.00;100.00;100380.31;5113007;28;19920;-44
2023/12/22 07:49:50;;;;;;;;;;;;;;;8.98;100.00;100370.78;5113521;28;19987;-43
2023/12/22 07:52:15;;;;;;;;;;;;;;;8.95;100.00;100388.06;5113931;28;20057;-44
2023/12/22 07:54:40;;;;;;;;;;;;;;;8.98;100.00;100387.69;5082920;28;20022;-45
2023/12/22 07:57:05;;;;;;;;;;;;;;;9.01;100.00;100381.97;5095076;28;20065;-46
2023/12/22 07:59:30;;;;;;;;;;;;;;;8.98;100.00;100381.50;5099530;28;19927;-45
2023/12/22 08:01:56;;;;;;;;;;;;;;;9.00;100.00;100383.00;5104283;27;19920;-44
2023/12/22 08:04:21;;;;;;;;;;;;;;;9.00;100.00;100384.81;5107119;27;20230;-43
2023/12/22 08:06:46;;;;;;;;;;;;;;;9.01;100.00;100373.91;5095000;28;19923;-43
2023/12/22 08:09:11;;;;;;;;;;;;;;;9.06;100.00;100383.25;5107770;28;20026;-43
2023/12/22 08:11:37;;;;;;;;;;;;;;;9.09;100.00;100364.13;5107616;28;19928;-44
2023/12/22 08:14:03;;;;;;;;;;;;;;;9.14;100.00;100381.34;5106733;28;19915;-44
2023/12/22 08:16:28;;;;;;;;;;;;;;;9.17;100.00;100375.59;5099259;28;19975;-43
2023/12/22 08:18:53;;;;;;;;;;;;;;;9.19;100.00;100364.69;5105980;28;19920;-43
2023/12/22 08:21:18;;;;;;;;;;;;;;;9.20;100.00;100364.47;5108002;28;19916;-44
2023/12/22 08:23:44;;;;;;;;;;;;;;;9.25;100.00;100371.97;5097946;28;19924;-43
2023/12/22 08:26:09;;;;;;;;;;;;;;;9.28;100.00;100376.16;5100625;28;19967;-44
2023/12/22 08:28:34;;;;;;;;;;;;;;;9.30;100.00;100372.25;5106793;28;19976;-43
2023/12/22 08:30:59;;;;;;;;;;;;;;;9.28;100.00;100366.25;5103306;28;19974;-42
2023/12/22 08:33:24;;;;;;;;;;;;;;;9.20;100.00;100366.34;5106521;28;19955;-44
2023/12/22 08:35:50;;;;;;;;;;;;;;;9.16;100.00;100381.13;5104290;28;19916;-44
2023/12/22 08:38:15;;;;;;;;;;;;;;;9.15;100.00;100387.53;5107653;28;19930;-43
2023/12/22 08:40:40;;;;;;;;;;;;;;;9.13;100.00;100378.81;5105973;28;20390;-43
2023/12/22 08:43:06;;;;;;;;;;;;;;;9.10;100.00;100384.56;5096329;28;20003;-43
2023/12/22 08:45:31;;;;;;;;;;;;;;;9.14;100.00;100389.38;5102708;28;20022;-44
2023/12/22 08:47:57;;;;;;;;;;;;;;;9.18;100.00;100395.22;5101868;28;20237;-42
2023/12/22 08:50:22;;;;;;;;;;;;;;;9.19;100.00;100395.03;5103663;28;19927;-44
2023/12/22 08:52:47;;;;;;;;;;;;;;;9.25;100.00;100388.09;5099597;28;20396;-44
2023/12/22 08:55:12;;;;;;;;;;;;;;;9.28;100.00;100379.66;5103465;28;19928;-43
2023/12/22 08:57:39;;;;;;;;;;;;;;;9.31;100.00;100381.97;5104314;28;20123;-43
2023/12/22 09:00:04;;;;;;;;;;;;;;;9.31;100.00;100387.34;5104381;28;19920;-44
2023/12/22 09:02:29;;;;;;;;;;;;;;;9.35;100.00;100383.28;5106540;28;20071;-44
2023/12/22 09:04:55;;;;;;;;;;;;;;;9.39;100.00;100389.09;5103504;28;19920;-44
2023/12/22 09:07:22;;;;;;;;;;;;;;;9.42;100.00;100368.06;5102424;28;20435;-44
2023/12/22 09:09:47;;;;;;;;;;;;;;;9.41;100.00;100368.28;5101783;28;19931;-46
2023/12/22 09:12:12;;;;;;;;;;;;;;;9.48;100.00;100374.59;5099614;28;19927;-44
2023/12/22 09:14:38;;;;;;;;;;;;;;;9.52;100.00;100375.03;5104834;28;19936;-44
2023/12/22 09:17:03;;;;;;;;;;;;;;;9.56;100.00;100376.34;5107537;28;20068;-46
2023/12/22 09:19:28;;;;;;;;;;;;;;;9.62;100.00;100378.25;5098106;28;19985;-44
2023/12/22 09:21:54;;;;;;;;;;;;;;;9.64;100.00;100368.16;5102795;28;19980;-44
2023/12/22 09:24:19;;;;;;;;;;;;;;;9.66;100.00;100372.34;5104649;28;19919;-44
2023/12/22 09:26:44;;;;;;;;;;;;;;;9.70;100.00;100366.59;5103396;28;19931;-45
2023/12/22 09:29:09;;;;;;;;;;;;;;;9.71;100.00;100366.38;5104087;28;19931;-45
2023/12/22 09:31:34;;;;;;;;;;;;;;;9.72;100.00;100378.81;5104756;28;20015;-44
2023/12/22 09:34:00;;;;;;;;;;;;;;;9.79;100.00;100379.72;5105349;28;19930;-44
2023/12/22 09:36:25;;;;;;;;;;;;;;;9.76;100.00;100369.34;5102789;28;19920;-44
2023/12/22 09:38:50;;;;;;;;;;;;;;;9.78;100.00;100383.44;5107768;28;20295;-44
2023/12/22 09:41:15;;;;;;;;;;;;;;;9.79;100.00;100357.38;5107705;28;20184;-45
2023/12/22 09:43:41;;;;;;;;;;;;;;;9.76;100.00;100380.09;5102024;28;20038;-44
2023/12/22 09:46:07;;;;;;;;;;;;;;;9.78;100.00;100375.38;5104287;28;20018;-44
2023/12/22 09:48:32;;;;;;;;;;;;;;;9.77;100.00;100364.78;5103078;28;19920;-43
2023/12/22 09:50:57;;;;;;;;;;;;;;;9.76;100.00;100363.97;5102990;28;19920;-44
2023/12/22 09:53:22;;;;;;;;;;;;;;;9.78;100.00;100361.09;5096460;28;20309;-44
2023/12/22 09:55:49;;;;;;;;;;;;;;;9.81;100.00;100383.03;5104222;28;20358;-44
2023/12/22 09:58:14;;;;;;;;;;;;;;;9.86;100.00;100396.75;5107315;28;20393;-45
2023/12/22 10:00:40;;;;;;;;;;;;;;;9.95;100.00;100389.41;5109058;28;19951;-44
2023/12/22 10:03:08;;;;;;;;;;;;;;;9.96;100.00;100380.34;5107484;28;20456;-45
2023/12/22 10:05:33;;;;;;;;;;;;;;;9.97;100.00;100382.00;5102422;28;20412;-44
2023/12/22 10:08:00;;;;;;;;;;;;;;;10.00;100.00;100380.78;5106162;28;19996;-43
2023/12/22 10:10:25;;;;;;;;;;;;;;;10.00;100.00;100359.28;5105127;28;19919;-44
2023/12/22 10:12:51;;;;;;;;;;;;;;;10.07;100.00;100376.31;5102076;28;19927;-45
2023/12/22 10:15:16;;;;;;;;;;;;;;;10.08;100.00;100383.34;5093214;28;20010;-44
2023/12/22 10:17:41;;;;;;;;;;;;;;;10.09;100.00;100393.09;5096923;28;20301;-44
2023/12/22 10:20:08;;;;;;;;;;;;;;;10.11;100.00;100399.13;5104847;28;19948;-46
2023/12/22 10:22:34;;;;;;;;;;;;;;;10.15;100.00;100383.44;5108703;28;20282;-45
2023/12/22 10:24:59;;;;;;;;;;;;;;;10.17;100.00;100398.34;5109153;28;20258;-44
2023/12/22 10:27:24;;;;;;;;;;;;;;;10.21;100.00;100383.50;5108609;28;20041;-44
2023/12/22 10:29:50;;;;;;;;;;;;;;;10.21;100.00;100393.41;5106186;28;20269;-45
2023/12/22 10:32:16;;;;;;;;;;;;;;;10.20;100.00;100381.84;5109818;28;19927;-44
2023/12/22 10:34:41;;;;;;;;;;;;;;;10.27;100.00;100377.41;5107190;28;20386;-44
2023/12/22 10:37:06;;;;;;;;;;;;;;;10.22;100.00;100401.31;5107599;28;19924;-45
2023/12/22 10:39:32;;;;;;;;;;;;;;;10.22;100.00;100400.47;5109263;28;19924;-44
2023/12/22 10:42:00;;;;;;;;;;;;;;;10.20;100.00;100387.22;5108191;28;20369;-43
2023/12/22 10:44:25;;;;;;;;;;;;;;;10.19;100.00;100401.69;5107812;28;19962;-45
2023/12/22 10:46:51;;;;;;;;;;;;;;;10.20;100.00;100384.53;5101331;27;19985;-44
2023/12/22 10:49:16;;;;;;;;;;;;;;;10.20;100.00;100376.47;5107911;27;19915;-45
2023/12/22 10:51:42;;;;;;;;;;;;;;;10.20;100.00;100387.22;5107396;28;19935;-44
2023/12/22 10:54:07;;;;;;;;;;;;;;;10.24;100.00;100372.38;5107400;27;19924;-44
2023/12/22 10:56:33;;;;;;;;;;;;;;;10.21;100.00;100405.00;5108502;27;19927;-43
2023/12/22 10:58:58;;;;;;;;;;;;;;;10.22;100.00;100389.72;5108511;28;19942;-44
2023/12/22 11:01:23;;;;;;;;;;;;;;;10.22;100.00;100393.25;5107523;28;19912;-43
2023/12/22 11:03:50;;;;;;;;;;;;;;;10.21;100.00;100402.31;5095793;27;19927;-46
2023/12/22 11:06:16;;;;;;;;;;;;;;;10.23;100.00;100391.38;5105598;28;19920;-44
2023/12/22 11:08:41;;;;;;;;;;;;;;;10.25;100.00;100384.78;5090517;28;19924;-44
2023/12/22 11:11:09;;;;;;;;;;;;;;;10.26;100.00;100378.38;5100646;28;20338;-44
2023/12/22 11:13:34;;;;;;;;;;;;;;;10.29;100.00;100383.44;5106974;28;20057;-44
2023/12/22 11:15:59;;;;;;;;;;;;;;;10.30;100.00;100376.19;5084036;28;20014;-44
2023/12/22 11:18:25;;;;;;;;;;;;;;;10.30;100.00;100355.50;5098725;28;19999;-45
2023/12/22 11:20:50;;;;;;;;;;;;;;;10.32;100.00;100366.03;5098387;28;19916;-44
2023/12/22 11:23:16;;;;;;;;;;;;;;;10.32;100.00;100364.22;5106417;28;19927;-44
2023/12/22 11:25:41;;;;;;;;;;;;;;;10.33;100.00;100355.09;5104887;28;20059;-44
2023/12/22 11:28:06;;;;;;;;;;;;;;;10.33;100.00;100355.09;5092696;28;20319;-44
2023/12/22 11:30:31;;;;;;;;;;;;;;;10.36;100.00;100358.44;5094863;28;20299;-44
2023/12/22 11:32:56;;;;;;;;;;;;;;;10.33;100.00;100344.34;5107827;28;20330;-43
2023/12/22 11:35:23;;;;;;;;;;;;;;;10.33;100.00;100355.09;5102583;28;19920;-44
2023/12/22 11:37:48;;;;;;;;;;;;;;;10.31;100.00;100343.69;5107256;28;20301;-45
2023/12/22 11:40:14;;;;;;;;;;;;;;;10.35;100.00;100348.69;5102296;28;19919;-44
2023/12/22 11:42:43;;;;;;;;;;;;;;;10.32;100.00;100348.06;5093450;28;19959;-44
2023/12/22 11:45:13;;;;;;;;;;;;;;;10.34;100.00;100347.88;5081293;28;20488;-44
2023/12/22 11:47:38;;;;;;;;;;;;;;;10.35;100.00;100340.63;5107376;28;20583;-44
2023/12/22 11:50:04;;;;;;;;;;;;;;;10.32;100.00;100353.44;5099020;28;19916;-43
2023/12/22 11:52:29;;;;;;;;;;;;;;;10.29;100.00;100331.47;5106481;28;19969;-45
2023/12/22 11:54:54;;;;;;;;;;;;;;;10.37;100.00;100343.97;5106629;28;19915;-45
2023/12/22 11:57:30;;;;;;;;;;;;;;;10.33;100.00;100338.97;5106543;28;19920;-45
2023/12/22 11:59:55;;;;;;;;;;;;;;;10.35;100.00;100341.47;5106974;27;19976;-45
2023/12/22 12:02:20;;;;;;;;;;;;;;;10.43;100.00;100341.34;5108516;28;19920;-44
2023/12/22 12:04:50;;;;;;;;;;;;;;;10.40;100.00;100327.44;5102152;28;20293;-45
2023/12/22 12:07:34;;;;;;;;;;;;;;;10.45;100.00;100319.59;5107489;28;20042;-43
2023/12/22 12:09:59;;;;;;;;;;;;;;;10.43;100.00;100321.69;5106494;28;19970;-43
2023/12/22 12:12:24;;;;;;;;;;;;;;;10.41;100.00;100321.88;5107427;28;19947;-44
2023/12/22 12:14:50;;;;;;;;;;;;;;;10.42;100.00;100310.06;5104019;28;19975;-44
2023/12/22 12:17:15;;;;;;;;;;;;;;;10.45;100.00;100295.41;5077633;28;19915;-45
2023/12/22 12:19:41;;;;;;;;;;;;;;;10.45;100.00;100301.63;5107043;28;19984;-44
2023/12/22 12:22:07;;;;;;;;;;;;;;;10.50;100.00;100301.84;5102498;28;19934;-45
2023/12/22 12:24:32;;;;;;;;;;;;;;;10.52;100.00;100302.50;5106000;28;19916;-44
2023/12/22 12:26:57;;;;;;;;;;;;;;;10.50;100.00;100303.72;5106394;28;19919;-45